DEKCM EDLW-

Flight info

Callsign DEKCM
Flight time N/A
Altitude
Route
Aircraft DA40

Departure

Time 2026-05-07 16:49
Airport Dortmund Airport (EDLW)

Arrival

Time N/A
Airport -
Time Latitude Longitude Altitude Speed Heading
2026-05-07 16:43 51.51217 7.60201 443 ft 17 kts 68°
2026-05-07 16:44 51.51275 7.60388 441 ft 20 kts 60°
2026-05-07 16:44 51.51347 7.60588 438 ft 16 kts 60°
2026-05-07 16:44 51.51404 7.60753 430 ft 19 kts 60°
2026-05-07 16:44 51.51468 7.60935 426 ft 18 kts 60°
2026-05-07 16:45 51.51534 7.61054 427 ft 16 kts
2026-05-07 16:45 51.51621 7.61143 421 ft 15 kts 75°
2026-05-07 16:45 51.51671 7.61305 422 ft 18 kts 60°
2026-05-07 16:45 51.51734 7.61483 418 ft 15 kts 60°
2026-05-07 16:46 51.51787 7.61635 414 ft 18 kts 60°
2026-05-07 16:46 51.51855 7.61825 411 ft 20 kts 60°
2026-05-07 16:46 51.51924 7.62021 408 ft 20 kts 59°
2026-05-07 16:46 51.51994 7.62218 407 ft 21 kts 60°
2026-05-07 16:47 51.52060 7.62378 404 ft 14 kts 30°
2026-05-07 16:47 51.52129 7.62362 405 ft 3 kts 332°
2026-05-07 16:48 51.52162 7.62333 405 ft 13 kts 330°
2026-05-07 16:48 51.52173 7.62184 405 ft 21 kts 240°
2026-05-07 16:48 51.52009 7.61725 410 ft 74 kts 240°
2026-05-07 16:48 51.51738 7.60966 638 ft 76 kts 240°
2026-05-07 16:49 51.51577 7.60205 885 ft 73 kts 287°
2026-05-07 16:49 51.52007 7.59945 1089 ft 76 kts 34°
2026-05-07 16:49 51.52402 7.60642 1198 ft 94 kts 50°
2026-05-07 16:49 51.52990 7.60626 1247 ft 110 kts 300°
2026-05-07 16:50 51.52629 7.59770 1276 ft 118 kts 174°
2026-05-07 16:50 51.52300 7.60382 1265 ft 123 kts 85°
2026-05-07 16:50 51.52916 7.60605 1290 ft 125 kts 294°
2026-05-07 16:50 51.52466 7.60427 1475 ft 104 kts 31°
2026-05-07 16:51 51.52900 7.59822 1456 ft 119 kts 244°
2026-05-07 16:51 51.52416 7.59601 1475 ft 122 kts 149°
2026-05-07 16:51 51.52459 7.60713 1528 ft 123 kts 20°
2026-05-07 16:51 51.52807 7.59960 1666 ft 112 kts 217°
2026-05-07 16:52 51.52263 7.60412 1269 ft 123 kts 73°
2026-05-07 16:52 51.52922 7.60409 1233 ft 129 kts 287°
2026-05-07 16:52 51.52419 7.59627 1369 ft 122 kts 161°
2026-05-07 16:52 51.52261 7.60746 1385 ft 126 kts 42°
2026-05-07 16:53 51.52913 7.60338 1406 ft 128 kts 270°
2026-05-07 16:53 51.52268 7.59924 1400 ft 129 kts 130°
2026-05-07 16:53 51.52588 7.60910 1455 ft 126 kts 349°
2026-05-07 16:53 51.52590 7.59967 1530 ft 119 kts 182°
2026-05-07 16:54 51.52437 7.60845 1323 ft 99 kts 61°
2026-05-07 16:54 51.52756 7.61740 1226 ft 89 kts 60°
2026-05-07 16:54 51.53056 7.62595 1078 ft 88 kts 60°
2026-05-07 16:54 51.53324 7.63458 953 ft 82 kts 78°
2026-05-07 16:55 51.53039 7.64118 772 ft 81 kts 161°
2026-05-07 16:55 51.52670 7.63640 567 ft 81 kts 248°
2026-05-07 16:55 51.52418 7.62895 464 ft 70 kts 240°
2026-05-07 16:55 51.52188 7.62237 415 ft 65 kts 240°
2026-05-07 16:56 51.51972 7.61626 409 ft 63 kts 241°
2026-05-07 16:56 51.51731 7.60914 573 ft 77 kts 241°
2026-05-07 16:56 51.50944 7.60531 1004 ft 81 kts 120°
2026-05-07 16:57 51.51030 7.61410 1135 ft 95 kts 63°
2026-05-07 16:57 51.51394 7.62330 1237 ft 97 kts 56°
2026-05-07 16:57 51.51732 7.63156 1152 ft 82 kts 56°
2026-05-07 16:57 51.52056 7.63914 1037 ft 84 kts 54°
2026-05-07 16:58 51.52395 7.64668 941 ft 83 kts 54°
2026-05-07 16:58 51.52708 7.65394 925 ft 76 kts 54°
2026-05-07 16:58 51.53018 7.66072 905 ft 75 kts 45°
2026-05-07 16:58 51.53373 7.65737 793 ft 81 kts 269°
2026-05-07 16:59 51.53140 7.64953 739 ft 73 kts 239°
2026-05-07 16:59 51.52899 7.64263 711 ft 71 kts 240°
2026-05-07 16:59 51.52655 7.63578 638 ft 69 kts 240°
2026-05-07 16:59 51.52420 7.62906 511 ft 71 kts 240°
2026-05-07 17:00 51.52187 7.62230 410 ft 65 kts 240°
2026-05-07 17:00 51.51972 7.61623 416 ft 70 kts 241°
2026-05-07 17:00 51.51732 7.60927 658 ft 69 kts 240°
2026-05-07 17:00 51.51445 7.60294 860 ft 74 kts 213°
2026-05-07 17:01 51.51048 7.60529 1084 ft 73 kts 102°
2026-05-07 17:01 51.51225 7.61342 1184 ft 92 kts 60°
2026-05-07 17:01 51.51536 7.62156 1048 ft 87 kts 57°
2026-05-07 17:01 51.51863 7.63199 888 ft 121 kts 65°
2026-05-07 17:02 51.52507 7.63439 801 ft 130 kts 287°
2026-05-07 17:02 51.52107 7.62019 422 ft 149 kts 240°
2026-05-07 17:02 51.51641 7.60708 846 ft 95 kts 238°
2026-05-07 17:02 51.51228 7.60230 1320 ft 79 kts 180°
2026-05-07 17:03 51.50857 7.60766 1518 ft 84 kts 91°
2026-05-07 17:03 51.51084 7.61731 1468 ft 94 kts 60°
2026-05-07 17:03 51.51014 7.62491 1352 ft 82 kts 182°
2026-05-07 17:03 51.50699 7.61774 1219 ft 84 kts 251°
2026-05-07 17:04 51.50537 7.60870 1134 ft 83 kts 255°
2026-05-07 17:04 51.50432 7.59982 1077 ft 82 kts 275°
2026-05-07 17:04 51.50767 7.59289 913 ft 86 kts 341°
2026-05-07 17:04 51.51284 7.59636 666 ft 89 kts 57°
2026-05-07 17:05 51.51582 7.60494 485 ft 84 kts 60°
2026-05-07 17:05 51.51853 7.61276 414 ft 75 kts 60°
2026-05-07 17:05 51.52091 7.61940 408 ft 63 kts 60°
2026-05-07 17:05 51.52260 7.62446 401 ft 39 kts 63°
2026-05-07 17:06 51.52314 7.62706 396 ft 18 kts 120°
2026-05-07 17:06 51.52249 7.62773 395 ft 0 kts 157°
2026-05-07 17:07 51.52214 7.62784 396 ft 15 kts 187°
2026-05-07 17:07 51.52135 7.62627 399 ft 20 kts 241°
2026-05-07 17:07 51.52067 7.62431 404 ft 20 kts 240°
2026-05-07 17:07 51.52002 7.62249 407 ft 18 kts 241°
2026-05-07 17:08 51.51942 7.62077 408 ft 18 kts 241°
2026-05-07 17:08 51.51880 7.61899 411 ft 18 kts 240°
2026-05-07 17:08 51.51818 7.61722 412 ft 18 kts 242°
2026-05-07 17:08 51.51757 7.61552 417 ft 17 kts 241°
2026-05-07 17:09 51.51702 7.61395 419 ft 16 kts 241°
2026-05-07 17:09 51.51649 7.61242 419 ft 15 kts 238°
2026-05-07 17:09 51.51592 7.61084 423 ft 17 kts 231°
2026-05-07 17:09 51.51500 7.61026 422 ft 14 kts 238°
2026-05-07 17:10 51.51448 7.60879 426 ft 18 kts 240°
2026-05-07 17:10 51.51385 7.60699 434 ft 18 kts 242°
2026-05-07 17:10 51.51324 7.60518 438 ft 19 kts 243°
2026-05-07 17:10 51.51263 7.60338 441 ft 18 kts 238°
2026-05-07 17:11 51.51208 7.60188 447 ft 12 kts 232°
2026-05-07 17:11 51.51160 7.60205 454 ft 10 kts 96°
2026-05-07 17:11 51.51200 7.60320 452 ft 7 kts 96°
2026-05-07 17:11 51.51183 7.60354 457 ft 0 kts 143°